Time;durP1;ratioP1;P1;durP2;ratioP2;P2;SDS_P1;SDS_P2;PMS_P1;PMS_P2;Temp;Humidity;BMP_temperature;BMP_pressure;BME280_temperature;BME280_humidity;BME280_pressure;Samples;Min_cycle;Max_cycle;Signal;HPM_P1;HPM_P2
2022/04/11 00:00:07;;;;;;;5.90;5.20;;;2.40;99.90;;;;;;4972179;28;20248;-84
2022/04/11 00:02:32;;;;;;;6.07;5.57;;;2.40;99.90;;;;;;4970597;28;20246;-84
2022/04/11 00:04:58;;;;;;;6.10;5.50;;;2.40;99.90;;;;;;4962708;28;20447;-84
2022/04/11 00:07:24;;;;;;;5.30;4.80;;;2.40;99.90;;;;;;4964618;28;20546;-84
2022/04/11 00:09:49;;;;;;;5.87;5.27;;;2.20;99.90;;;;;;4969286;28;20206;-83
2022/04/11 00:12:15;;;;;;;6.37;5.40;;;2.20;99.90;;;;;;4966469;28;20223;-84
2022/04/11 00:14:40;;;;;;;5.97;5.30;;;2.30;99.90;;;;;;4970187;28;20203;-84
2022/04/11 00:17:06;;;;;;;6.20;5.60;;;2.40;99.90;;;;;;4959927;28;20248;-82
2022/04/11 00:19:31;;;;;;;7.00;5.00;;;2.40;99.90;;;;;;4968704;28;20246;-84
2022/04/11 00:21:57;;;;;;;5.83;5.20;;;2.40;99.90;;;;;;4964648;28;20185;-84
2022/04/11 00:24:22;;;;;;;5.83;5.30;;;2.40;99.90;;;;;;4968885;28;20192;-84
2022/04/11 00:26:48;;;;;;;5.60;5.20;;;2.40;99.90;;;;;;4973408;28;20186;-84
2022/04/11 00:29:13;;;;;;;5.70;5.20;;;2.40;99.90;;;;;;4958355;28;20189;-84
2022/04/11 00:31:39;;;;;;;7.13;6.43;;;2.40;99.90;;;;;;4970832;28;20588;-84
2022/04/11 00:34:05;;;;;;;7.33;5.87;;;2.40;99.90;;;;;;4969305;28;20228;-85
2022/04/11 00:36:30;;;;;;;8.87;6.97;;;2.30;99.90;;;;;;4959622;28;20192;-84
2022/04/11 00:38:56;;;;;;;8.70;7.70;;;2.10;99.90;;;;;;4966832;28;20601;-85
2022/04/11 00:41:21;;;;;;;6.90;6.10;;;2.10;99.90;;;;;;4976826;28;20199;-84
2022/04/11 00:43:47;;;;;;;6.70;5.80;;;2.10;99.90;;;;;;4979459;28;20186;-84
2022/04/11 00:46:12;;;;;;;7.10;6.40;;;2.20;99.90;;;;;;4966114;28;20183;-85
2022/04/11 00:48:39;;;;;;;6.17;5.57;;;1.90;99.90;;;;;;4965546;28;20310;-84
2022/04/11 00:51:19;;;;;;;6.40;5.73;;;1.90;99.90;;;;;;4975773;28;20192;-84
2022/04/11 00:53:46;;;;;;;8.20;6.13;;;1.90;99.90;;;;;;4967490;28;20447;-84
2022/04/11 00:56:13;;;;;;;5.97;5.47;;;2.00;99.90;;;;;;4967008;28;20454;-83
2022/04/11 00:58:39;;;;;;;6.73;5.87;;;2.10;99.90;;;;;;4973234;28;20454;-84
2022/04/11 01:01:06;;;;;;;6.83;6.13;;;2.20;99.90;;;;;;4970136;28;21019;-84
2022/04/11 01:03:32;;;;;;;6.80;6.20;;;2.10;99.90;;;;;;4973286;28;20464;-84
2022/04/11 01:05:58;;;;;;;6.93;6.23;;;2.20;99.90;;;;;;4969451;28;20439;-84
2022/04/11 01:08:24;;;;;;;6.57;6.00;;;2.20;99.90;;;;;;4965007;28;20617;-84
2022/04/11 01:10:52;;;;;;;6.63;6.03;;;1.90;99.90;;;;;;4960597;28;20442;-84
2022/04/11 01:13:17;;;;;;;7.60;6.90;;;1.90;99.90;;;;;;4965883;28;20196;-84
2022/04/11 01:15:57;;;;;;;7.00;6.40;;;1.90;99.90;;;;;;4958887;28;20861;-84
2022/04/11 01:18:23;;;;;;;7.93;6.27;;;1.90;99.90;;;;;;4973161;28;20177;-84
2022/04/11 01:20:49;;;;;;;8.83;7.07;;;2.00;99.90;;;;;;4966480;28;21694;-83
2022/04/11 01:23:15;;;;;;;7.37;6.67;;;2.10;99.90;;;;;;4977507;28;20436;-84
2022/04/11 01:25:40;;;;;;;6.73;6.10;;;2.00;99.90;;;;;;4979664;28;20190;-83
2022/04/11 01:28:06;;;;;;;7.47;6.30;;;2.00;99.90;;;;;;4971630;28;20266;-85
2022/04/11 01:30:32;;;;;;;7.20;6.50;;;2.00;99.90;;;;;;4959986;28;20189;-84
2022/04/11 01:32:58;;;;;;;6.60;5.80;;;2.10;99.90;;;;;;4971495;28;20453;-84
2022/04/11 01:35:26;;;;;;;7.37;6.40;;;2.10;99.90;;;;;;4963881;28;20993;-85
2022/04/11 01:37:53;;;;;;;7.67;6.40;;;2.00;99.90;;;;;;4965035;28;20193;-85
2022/04/11 01:40:19;;;;;;;8.00;7.17;;;2.00;99.90;;;;;;4960126;28;20497;-84
2022/04/11 01:42:45;;;;;;;8.63;7.90;;;2.00;99.90;;;;;;4957700;28;20535;-85
2022/04/11 01:45:13;;;;;;;8.63;7.47;;;1.90;99.90;;;;;;4966763;28;20513;-85
2022/04/11 01:47:39;;;;;;;7.93;7.13;;;2.00;99.90;;;;;;4956595;28;20199;-84
2022/04/11 01:50:06;;;;;;;9.40;7.40;;;2.00;99.90;;;;;;4961253;28;20457;-83
2022/04/11 01:52:32;;;;;;;11.60;7.40;;;1.90;99.90;;;;;;4946299;28;21130;-83
2022/04/11 01:54:57;;;;;;;8.27;7.47;;;1.90;99.90;;;;;;4957128;28;20957;-83
2022/04/11 01:57:23;;;;;;;8.73;6.97;;;1.90;99.90;;;;;;4960659;28;20199;-83
2022/04/11 01:59:51;;;;;;;8.20;7.40;;;2.00;99.90;;;;;;4961186;28;20227;-83
2022/04/11 02:02:17;;;;;;;8.10;7.30;;;2.00;99.90;;;;;;4965844;28;20545;-84
2022/04/11 02:04:43;;;;;;;8.43;7.53;;;2.00;99.90;;;;;;4967310;28;20444;-84
2022/04/11 02:07:08;;;;;;;8.97;7.37;;;2.00;99.90;;;;;;4960154;28;20723;-83
2022/04/11 02:09:34;;;;;;;7.97;6.80;;;2.10;99.90;;;;;;4958827;28;20444;-83
2022/04/11 02:11:59;;;;;;;8.70;7.00;;;2.10;99.90;;;;;;4954702;28;20298;-84
2022/04/11 02:14:25;;;;;;;9.60;6.93;;;2.10;99.90;;;;;;4961066;28;20290;-84
2022/04/11 02:16:50;;;;;;;9.70;6.80;;;2.10;99.90;;;;;;4966307;28;20920;-83
2022/04/11 02:19:16;;;;;;;7.80;7.00;;;2.20;99.90;;;;;;4955886;28;21251;-83
2022/04/11 02:21:41;;;;;;;7.43;6.67;;;2.20;99.90;;;;;;4951521;28;20197;-85
2022/04/11 02:24:07;;;;;;;8.40;7.50;;;2.20;99.90;;;;;;4948452;28;20668;-84
2022/04/11 02:26:33;;;;;;;9.00;7.00;;;2.20;99.90;;;;;;4947032;28;20197;-83
2022/04/11 02:28:58;;;;;;;8.80;7.50;;;2.20;99.90;;;;;;4958171;28;20199;-84
2022/04/11 02:31:24;;;;;;;6.93;6.33;;;2.20;99.90;;;;;;4963209;28;20195;-84
2022/04/11 02:33:49;;;;;;;10.50;8.10;;;2.20;99.90;;;;;;4960044;28;20192;-84
2022/04/11 02:36:15;;;;;;;13.53;8.77;;;2.10;99.90;;;;;;4964409;28;20597;-83
2022/04/11 02:38:40;;;;;;;7.80;7.10;;;2.00;99.90;;;;;;4955337;28;20198;-84
2022/04/11 02:41:07;;;;;;;8.00;7.20;;;2.00;99.90;;;;;;4945543;28;20230;-85
2022/04/11 02:43:32;;;;;;;9.20;7.43;;;2.00;99.90;;;;;;4968532;28;20196;-84
2022/04/11 02:45:58;;;;;;;10.37;7.60;;;2.10;99.90;;;;;;4963782;28;20456;-85
2022/04/11 02:48:23;;;;;;;7.50;6.80;;;2.20;99.90;;;;;;4951677;28;20529;-84
2022/04/11 02:50:49;;;;;;;7.57;6.87;;;2.20;99.90;;;;;;4958273;28;20212;-84
2022/04/11 02:53:14;;;;;;;8.60;7.80;;;2.20;99.90;;;;;;4955488;28;20186;-84
2022/04/11 02:55:40;;;;;;;8.63;7.77;;;2.30;99.90;;;;;;4966591;28;20290;-85
2022/04/11 02:58:05;;;;;;;9.23;8.33;;;2.40;99.90;;;;;;4964198;28;20177;-84
2022/04/11 03:00:31;;;;;;;9.63;8.37;;;2.30;99.90;;;;;;4973126;28;20215;-85
2022/04/11 03:02:56;;;;;;;8.33;7.50;;;2.30;99.90;;;;;;4973001;28;20818;-85
2022/04/11 03:05:22;;;;;;;8.97;8.07;;;2.20;99.90;;;;;;4971137;28;20282;-85
2022/04/11 03:07:47;;;;;;;11.60;8.43;;;2.20;99.90;;;;;;4977335;28;20249;-83
2022/04/11 03:10:13;;;;;;;8.83;7.93;;;2.20;99.90;;;;;;4966325;28;20191;-83
2022/04/11 03:12:39;;;;;;;9.73;7.10;;;2.20;99.90;;;;;;4968220;28;20197;-84
2022/04/11 03:15:05;;;;;;;8.23;7.37;;;2.30;99.90;;;;;;4957529;28;20179;-84
2022/04/11 03:17:30;;;;;;;7.70;6.93;;;2.40;99.90;;;;;;4959011;28;20679;-84
2022/04/11 03:19:56;;;;;;;8.77;7.53;;;2.50;99.90;;;;;;4953803;28;20483;-84
2022/04/11 03:22:22;;;;;;;8.40;7.70;;;2.50;99.90;;;;;;4962672;28;20185;-84
2022/04/11 03:24:47;;;;;;;7.60;6.83;;;2.40;99.90;;;;;;4971141;28;20669;-84
2022/04/11 03:27:23;;;;;;;8.03;7.23;;;2.40;99.90;;;;;;4950396;28;20183;-83
2022/04/11 03:29:48;;;;;;;6.90;6.30;;;2.40;99.90;;;;;;4950509;28;20190;-84
2022/04/11 03:32:14;;;;;;;7.30;6.70;;;2.40;99.90;;;;;;4963230;28;20651;-84
2022/04/11 03:34:39;;;;;;;7.03;6.43;;;2.40;99.90;;;;;;4965974;28;20658;-83
2022/04/11 03:37:05;;;;;;;9.13;8.07;;;2.50;99.90;;;;;;4976832;28;20209;-84
2022/04/11 03:39:30;;;;;;;7.67;6.97;;;2.50;99.90;;;;;;4959055;28;20342;-84
2022/04/11 03:41:56;;;;;;;8.53;6.93;;;2.50;99.90;;;;;;4943351;28;20178;-83
2022/04/11 03:44:26;;;;;;;9.13;6.93;;;2.50;99.90;;;;;;4960474;28;20192;-85
2022/04/11 03:46:55;;;;;;;7.17;6.47;;;2.50;99.90;;;;;;4972676;28;20185;-85
2022/04/11 03:49:20;;;;;;;7.67;6.97;;;2.60;99.90;;;;;;4947268;28;20448;-84
2022/04/11 03:51:46;;;;;;;9.13;7.17;;;2.70;99.90;;;;;;4953521;28;20191;-84
2022/04/11 03:54:12;;;;;;;7.83;6.90;;;2.50;99.90;;;;;;4942252;28;20197;-84
2022/04/11 03:56:40;;;;;;;7.53;6.73;;;2.50;99.90;;;;;;4954388;28;23528;-83
2022/04/11 03:59:08;;;;;;;7.80;7.00;;;2.40;99.90;;;;;;4952686;28;20192;-85
2022/04/11 04:01:34;;;;;;;7.30;6.60;;;2.40;99.90;;;;;;4979521;28;20953;-84
2022/04/11 04:03:59;;;;;;;7.60;6.90;;;2.40;99.90;;;;;;4951281;28;20447;-84
2022/04/11 04:06:25;;;;;;;7.97;7.27;;;2.40;99.90;;;;;;4954238;28;21593;-85
2022/04/11 04:08:50;;;;;;;9.13;6.77;;;2.40;99.90;;;;;;4946359;28;20394;-84
2022/04/11 04:11:16;;;;;;;7.37;6.63;;;2.50;99.90;;;;;;4956365;28;20746;-84
2022/04/11 04:13:45;;;;;;;8.50;7.80;;;2.40;99.90;;;;;;4945569;28;20208;-83
2022/04/11 04:16:10;;;;;;;7.80;6.70;;;2.40;99.90;;;;;;4940109;28;20547;-84
2022/04/11 04:18:36;;;;;;;7.20;6.53;;;2.40;99.90;;;;;;4944926;28;20439;-84
2022/04/11 04:21:01;;;;;;;7.70;6.90;;;2.40;99.90;;;;;;4940434;28;20281;-84
2022/04/11 04:23:27;;;;;;;8.60;7.33;;;2.30;99.90;;;;;;4940240;28;21429;-84
2022/04/11 04:25:52;;;;;;;7.93;7.17;;;2.30;99.90;;;;;;4953937;28;20627;-83
2022/04/11 04:28:18;;;;;;;9.53;6.70;;;2.40;99.90;;;;;;4963125;28;20553;-85
2022/04/11 04:30:45;;;;;;;7.60;7.00;;;2.40;99.90;;;;;;4957491;28;20237;-84
2022/04/11 04:33:12;;;;;;;8.13;7.27;;;2.30;99.90;;;;;;4969527;28;20187;-84
2022/04/11 04:35:38;;;;;;;7.30;6.60;;;2.20;99.90;;;;;;4974852;28;20463;-83
2022/04/11 04:38:06;;;;;;;8.90;7.40;;;2.20;99.90;;;;;;4971679;28;20571;-84
2022/04/11 04:40:32;;;;;;;7.97;7.20;;;2.20;99.90;;;;;;4973337;28;20534;-84
2022/04/11 04:42:58;;;;;;;9.00;7.40;;;2.20;99.90;;;;;;4949222;28;21244;-84
2022/04/11 04:45:23;;;;;;;9.20;7.97;;;2.10;99.90;;;;;;4963960;28;20316;-84
2022/04/11 04:47:49;;;;;;;8.43;7.10;;;2.00;99.90;;;;;;4956803;28;20184;-85
2022/04/11 04:50:16;;;;;;;10.10;7.03;;;2.10;99.90;;;;;;4954405;28;20339;-84
2022/04/11 04:52:42;;;;;;;10.40;7.10;;;2.20;99.90;;;;;;4944453;28;20976;-84
2022/04/11 04:55:08;;;;;;;8.40;7.37;;;2.20;99.90;;;;;;4946879;28;20535;-86
2022/04/11 04:57:34;;;;;;;10.63;8.07;;;2.10;99.90;;;;;;4955802;28;21871;-83
2022/04/11 05:00:00;;;;;;;10.93;7.80;;;2.00;99.90;;;;;;4989762;28;20478;-83
2022/04/11 05:02:34;;;;;;;7.83;7.00;;;2.00;99.90;;;;;;4975347;28;20489;-83
2022/04/11 05:05:10;;;;;;;10.33;8.40;;;2.10;99.90;;;;;;4972238;28;20445;-83
2022/04/11 05:07:36;;;;;;;12.43;8.37;;;2.20;99.90;;;;;;4973283;28;20541;-83
2022/04/11 05:10:04;;;;;;;10.60;7.73;;;2.30;99.90;;;;;;4947858;28;20442;-83
2022/04/11 05:12:29;;;;;;;8.33;7.50;;;2.40;99.90;;;;;;4964288;28;22190;-82
2022/04/11 05:14:55;;;;;;;11.50;9.20;;;2.30;99.90;;;;;;4978613;28;20446;-82
2022/04/11 05:17:22;;;;;;;10.50;9.50;;;2.40;99.90;;;;;;4959823;28;20292;-83
2022/04/11 05:19:48;;;;;;;9.03;8.07;;;2.50;99.90;;;;;;4961323;28;20223;-82
2022/04/11 05:22:13;;;;;;;10.23;9.23;;;2.40;99.90;;;;;;4966068;28;20443;-83
2022/04/11 05:24:39;;;;;;;10.20;9.10;;;2.40;99.90;;;;;;4974211;28;20183;-83
2022/04/11 05:27:04;;;;;;;10.10;8.93;;;2.40;99.90;;;;;;4948240;28;21356;-85
2022/04/11 05:29:30;;;;;;;9.73;8.73;;;2.50;99.90;;;;;;4969748;28;20208;-86
2022/04/11 05:31:55;;;;;;;9.27;8.37;;;2.50;99.90;;;;;;4964516;28;20269;-85
2022/04/11 05:34:21;;;;;;;7.83;7.13;;;2.60;99.90;;;;;;4955681;28;20280;-82
2022/04/11 05:36:46;;;;;;;8.53;7.43;;;2.60;99.90;;;;;;4955913;28;20250;-82
2022/04/11 05:39:13;;;;;;;7.97;7.17;;;2.70;99.90;;;;;;4951038;28;20196;-82
2022/04/11 05:41:39;;;;;;;7.93;7.10;;;2.70;99.90;;;;;;4963659;28;20205;-83
2022/04/11 05:44:04;;;;;;;8.20;7.40;;;2.90;99.90;;;;;;4960311;28;20436;-84
2022/04/11 05:46:30;;;;;;;8.07;6.73;;;3.00;99.90;;;;;;4971452;28;20706;-83
2022/04/11 05:48:56;;;;;;;9.23;8.33;;;3.10;99.90;;;;;;4966456;28;20186;-84
2022/04/11 05:51:21;;;;;;;8.10;7.30;;;3.20;99.90;;;;;;4953858;28;20193;-83
2022/04/11 05:53:47;;;;;;;8.63;7.70;;;3.30;99.90;;;;;;4970376;28;20276;-83
2022/04/11 05:56:12;;;;;;;9.10;7.50;;;3.40;99.90;;;;;;4966960;28;20189;-83
2022/04/11 05:58:38;;;;;;;9.80;8.50;;;3.50;99.90;;;;;;4961932;28;20189;-82
2022/04/11 06:01:03;;;;;;;7.37;6.67;;;3.60;99.90;;;;;;4966152;28;20304;-82
2022/04/11 06:03:29;;;;;;;9.90;7.83;;;3.80;99.90;;;;;;4989040;28;20663;-82
2022/04/11 06:05:54;;;;;;;8.20;6.77;;;3.90;99.90;;;;;;4971722;28;20615;-83
2022/04/11 06:08:20;;;;;;;9.67;7.50;;;4.10;99.90;;;;;;4970404;28;20189;-83
2022/04/11 06:10:46;;;;;;;7.80;7.07;;;4.20;99.90;;;;;;4990787;28;20199;-83
2022/04/11 06:13:12;;;;;;;8.20;7.40;;;4.20;99.90;;;;;;4970511;28;20191;-83
2022/04/11 06:15:37;;;;;;;9.20;8.20;;;4.10;99.90;;;;;;4979691;28;20448;-82
2022/04/11 06:18:03;;;;;;;8.50;7.43;;;3.90;99.90;;;;;;4963896;28;20643;-83
2022/04/11 06:20:29;;;;;;;9.07;7.10;;;3.90;99.90;;;;;;4964135;28;20239;-82
2022/04/11 06:22:54;;;;;;;9.43;8.43;;;4.00;99.90;;;;;;4985925;28;20186;-83
2022/04/11 06:25:20;;;;;;;10.40;8.53;;;4.10;99.90;;;;;;4971237;28;20192;-83
2022/04/11 06:27:45;;;;;;;11.63;8.60;;;4.30;99.90;;;;;;4971363;28;20235;-83
2022/04/11 06:30:11;;;;;;;8.60;7.70;;;4.60;99.90;;;;;;4983272;28;20182;-83
2022/04/11 06:32:37;;;;;;;8.13;7.30;;;4.90;99.90;;;;;;4971758;28;20191;-86
2022/04/11 06:35:03;;;;;;;8.20;7.40;;;5.10;99.90;;;;;;4955840;28;20480;-85
2022/04/11 06:37:28;;;;;;;8.17;7.37;;;5.40;99.90;;;;;;4960306;28;20191;-84
2022/04/11 06:39:54;;;;;;;8.20;7.40;;;5.60;99.90;;;;;;4957255;28;21187;-85
2022/04/11 06:42:20;;;;;;;7.67;6.87;;;5.80;99.90;;;;;;4955900;28;20629;-84
2022/04/11 06:44:46;;;;;;;7.67;6.97;;;5.90;99.90;;;;;;4988751;28;20639;-84
2022/04/11 06:47:12;;;;;;;7.57;6.77;;;6.20;99.90;;;;;;4964450;28;20528;-85
2022/04/11 06:49:38;;;;;;;7.90;6.97;;;6.40;99.90;;;;;;4955613;28;20879;-85
2022/04/11 06:52:05;;;;;;;7.10;6.50;;;6.50;99.90;;;;;;4966315;28;20189;-85
2022/04/11 06:54:31;;;;;;;6.67;6.07;;;6.70;99.90;;;;;;4956696;28;20499;-84
2022/04/11 06:56:57;;;;;;;7.77;6.90;;;6.70;99.90;;;;;;4962016;28;20448;-85
2022/04/11 06:59:23;;;;;;;6.27;5.67;;;6.80;99.90;;;;;;4967853;28;20191;-85
2022/04/11 07:01:48;;;;;;;6.73;6.10;;;6.90;99.90;;;;;;4981423;28;20402;-84
2022/04/11 07:04:14;;;;;;;6.00;5.50;;;7.10;99.90;;;;;;4965822;28;20189;-84
2022/04/11 07:06:39;;;;;;;6.70;6.10;;;7.20;99.90;;;;;;4963378;28;20216;-85
2022/04/11 07:09:05;;;;;;;7.33;6.10;;;7.20;99.90;;;;;;4957546;28;20197;-85
2022/04/11 07:11:31;;;;;;;6.53;5.73;;;7.20;99.90;;;;;;4958965;28;20247;-86
2022/04/11 07:13:57;;;;;;;5.70;5.23;;;7.20;99.90;;;;;;4962363;28;20197;-85
2022/04/11 07:16:24;;;;;;;6.43;5.83;;;7.20;99.90;;;;;;4973616;28;20469;-84
2022/04/11 07:18:50;;;;;;;7.73;6.30;;;7.40;99.90;;;;;;4964774;28;20465;-86
2022/04/11 07:21:17;;;;;;;5.60;5.10;;;7.40;99.90;;;;;;4957881;28;24482;-87
2022/04/11 07:23:43;;;;;;;6.47;5.87;;;7.50;99.90;;;;;;4959332;28;20448;-86
2022/04/11 07:26:08;;;;;;;6.83;6.13;;;7.70;99.90;;;;;;4973019;28;20449;-86
2022/04/11 07:28:34;;;;;;;7.53;6.40;;;7.80;99.90;;;;;;4962398;28;21082;-86
2022/04/11 07:31:00;;;;;;;7.20;6.20;;;7.80;99.90;;;;;;4953040;28;20721;-86
2022/04/11 07:33:25;;;;;;;7.20;6.60;;;7.90;99.90;;;;;;4971244;28;20238;-86
2022/04/11 07:35:51;;;;;;;8.90;7.43;;;8.20;99.90;;;;;;4978097;28;20532;-87
2022/04/11 07:38:16;;;;;;;7.40;6.10;;;8.40;99.90;;;;;;4967633;28;20190;-87
2022/04/11 07:40:42;;;;;;;9.33;6.80;;;8.50;99.90;;;;;;4964961;28;20221;-87
2022/04/11 07:43:07;;;;;;;6.43;5.83;;;8.70;99.90;;;;;;4970075;28;20190;-87
2022/04/11 07:45:36;;;;;;;6.30;5.73;;;8.90;99.90;;;;;;4956060;28;20197;-86
2022/04/11 07:48:01;;;;;;;9.43;5.90;;;9.00;99.90;;;;;;4965790;28;20439;-87
2022/04/11 07:50:27;;;;;;;6.27;5.67;;;9.00;99.90;;;;;;4958977;28;20185;-87
2022/04/11 07:52:53;;;;;;;5.80;5.30;;;9.10;99.90;;;;;;4964892;28;20505;-86
2022/04/11 07:55:18;;;;;;;6.17;5.57;;;9.30;99.90;;;;;;4958568;28;20453;-87
2022/04/11 07:57:44;;;;;;;5.30;4.83;;;9.30;99.90;;;;;;4966956;28;20610;-87
2022/04/11 08:00:10;;;;;;;6.33;5.73;;;9.50;99.90;;;;;;4960942;28;20219;-87
2022/04/11 08:02:36;;;;;;;6.17;5.57;;;9.70;99.30;;;;;;4967341;28;20193;-87
2022/04/11 08:05:03;;;;;;;5.70;5.20;;;9.70;98.70;;;;;;4956056;28;21071;-86
2022/04/11 08:07:35;;;;;;;5.27;4.77;;;9.60;97.90;;;;;;4965853;28;20290;-86
2022/04/11 08:10:02;;;;;;;5.70;5.20;;;9.70;99.90;;;;;;4963514;28;21502;-87
2022/04/11 08:12:28;;;;;;;5.87;4.17;;;9.80;99.40;;;;;;4960796;28;20455;-87
2022/04/11 08:14:55;;;;;;;4.40;4.10;;;9.90;96.80;;;;;;4964793;28;20448;-86
2022/04/11 08:17:20;;;;;;;5.73;4.80;;;9.90;97.40;;;;;;4958070;28;20191;-85
2022/04/11 08:19:46;;;;;;;5.43;4.90;;;10.10;97.00;;;;;;4969775;28;21483;-86
2022/04/11 08:22:12;;;;;;;5.33;4.83;;;10.20;97.90;;;;;;4961996;28;20201;-87
2022/04/11 08:24:37;;;;;;;4.80;4.40;;;10.40;96.80;;;;;;4958957;28;20266;-87
2022/04/11 08:27:03;;;;;;;4.67;4.27;;;10.60;95.40;;;;;;4975831;28;20243;-87
2022/04/11 08:29:28;;;;;;;5.07;4.20;;;10.70;94.60;;;;;;4988959;28;20223;-87
2022/04/11 08:31:56;;;;;;;3.87;3.53;;;10.90;92.80;;;;;;4972833;28;20212;-87
2022/04/11 08:34:22;;;;;;;3.80;3.50;;;11.00;91.90;;;;;;4973802;28;20539;-87
2022/04/11 08:36:48;;;;;;;3.63;3.33;;;11.20;88.00;;;;;;4971046;28;20284;-87
2022/04/11 08:39:16;;;;;;;3.80;3.50;;;11.20;86.90;;;;;;4978585;28;20209;-88
2022/04/11 08:41:41;;;;;;;3.93;3.60;;;11.30;86.70;;;;;;4980012;28;20897;-87
2022/04/11 08:44:07;;;;;;;4.00;3.60;;;11.60;89.50;;;;;;4966797;28;20436;-87
2022/04/11 08:46:36;;;;;;;4.50;3.60;;;11.80;92.50;;;;;;4971207;28;20200;-86
2022/04/11 08:49:09;;;;;;;3.80;3.50;;;11.70;90.20;;;;;;4961983;28;20272;-87
2022/04/11 08:51:36;;;;;;;3.70;3.40;;;11.70;87.20;;;;;;4958148;28;20455;-87
2022/04/11 08:54:04;;;;;;;2.97;2.67;;;11.80;83.20;;;;;;4982831;28;20949;-87
2022/04/11 08:56:30;;;;;;;4.70;2.63;;;12.00;81.80;;;;;;4966032;28;20485;-86
2022/04/11 08:58:56;;;;;;;3.10;2.53;;;12.10;82.20;;;;;;4967785;28;20924;-87
2022/04/11 09:01:23;;;;;;;2.80;2.60;;;12.20;80.60;;;;;;4975463;28;20476;-87
2022/04/11 09:03:49;;;;;;;3.50;3.20;;;12.00;82.20;;;;;;4950041;28;20562;-87
2022/04/11 09:06:54;;;;;;;3.40;3.00;;;11.70;81.20;;;;;;4962061;28;20444;-87
2022/04/11 09:09:36;;;;;;;3.00;2.70;;;11.70;80.40;;;;;;4961460;28;20447;-86
2022/04/11 09:12:03;;;;;;;3.63;3.33;;;11.90;80.90;;;;;;4973248;28;20467;-87
2022/04/11 09:14:28;;;;;;;3.17;2.97;;;12.30;83.10;;;;;;4952041;28;20531;-86
2022/04/11 09:16:54;;;;;;;3.53;2.90;;;12.50;83.60;;;;;;4961683;28;21075;-87
2022/04/11 09:19:29;;;;;;;4.50;3.10;;;12.80;78.30;;;;;;4962183;28;20493;-86
2022/04/11 09:21:54;;;;;;;6.87;3.10;;;12.80;80.50;;;;;;4966040;28;20462;-86
2022/04/11 09:24:22;;;;;;;2.87;2.63;;;13.00;78.30;;;;;;4964917;28;20853;-85
2022/04/11 09:26:50;;;;;;;2.40;1.90;;;13.30;75.60;;;;;;4967975;28;20189;-86
2022/04/11 09:29:15;;;;;;;2.63;2.43;;;13.40;68.30;;;;;;4953644;28;20448;-87
2022/04/11 09:31:42;;;;;;;2.53;2.33;;;13.20;70.50;;;;;;4965905;28;20882;-86
2022/04/11 09:34:22;;;;;;;2.60;2.40;;;13.10;67.70;;;;;;4970347;28;20195;-86
2022/04/11 09:36:56;;;;;;;2.87;2.67;;;13.10;67.60;;;;;;4981240;28;20944;-86
2022/04/11 09:39:27;;;;;;;3.10;2.50;;;13.20;68.60;;;;;;4956049;28;20447;-86
2022/04/11 09:41:53;;;;;;;2.40;2.30;;;13.50;75.10;;;;;;4960974;28;21481;-87
2022/04/11 09:44:29;;;;;;;2.33;2.23;;;13.70;73.40;;;;;;4977038;28;20764;-87
2022/04/11 09:46:58;;;;;;;2.63;2.33;;;13.60;77.90;;;;;;4961897;28;20456;-87
2022/04/11 09:49:24;;;;;;;3.73;3.33;;;13.60;72.10;;;;;;4965056;28;20499;-87
2022/04/11 09:52:03;;;;;;;4.40;2.50;;;13.80;69.00;;;;;;4975013;28;20478;-86
2022/04/11 09:54:29;;;;;;;2.40;2.20;;;13.60;69.40;;;;;;4964672;28;20435;-89
2022/04/11 09:56:58;;;;;;;3.10;2.80;;;14.10;75.70;;;;;;4968168;28;20805;-86
2022/04/11 09:59:24;;;;;;;2.73;2.53;;;14.20;76.60;;;;;;4964424;28;20451;-89
2022/04/11 10:01:52;;;;;;;2.23;2.03;;;14.50;72.60;;;;;;4970805;28;20530;-88
2022/04/11 10:04:18;;;;;;;3.03;2.57;;;14.50;62.30;;;;;;4977311;28;20549;-86
2022/04/11 10:06:47;;;;;;;2.60;2.40;;;14.40;68.20;;;;;;4977530;28;20459;-87
2022/04/11 10:09:17;;;;;;;2.60;2.40;;;14.40;73.30;;;;;;4960640;28;20447;-86
2022/04/11 10:11:44;;;;;;;2.57;2.37;;;14.60;68.10;;;;;;4965454;28;20958;-87
2022/04/11 10:14:23;;;;;;;2.63;2.43;;;14.40;72.40;;;;;;4964299;28;20528;-86
2022/04/11 10:16:51;;;;;;;2.80;2.60;;;14.40;71.60;;;;;;4959899;28;20451;-85
2022/04/11 10:19:22;;;;;;;3.93;2.83;;;14.60;69.60;;;;;;4962061;28;20443;-87
2022/04/11 10:21:49;;;;;;;1.90;1.80;;;14.80;62.00;;;;;;4950672;28;20475;-87
2022/04/11 10:24:45;;;;;;;2.10;2.00;;;15.00;62.50;;;;;;4963904;28;21808;-87
2022/04/11 10:27:14;;;;;;;4.30;2.53;;;15.00;71.90;;;;;;4959716;28;20439;-87
2022/04/11 10:29:40;;;;;;;3.80;2.53;;;15.20;65.80;;;;;;4966903;28;20455;-87
2022/04/11 10:32:20;;;;;;;2.37;2.17;;;15.50;62.40;;;;;;4961368;28;20845;-87
2022/04/11 10:35:03;;;;;;;2.93;2.73;;;15.70;58.20;;;;;;4975269;28;20679;-87
2022/04/11 10:37:41;;;;;;;3.30;3.00;;;16.00;68.40;;;;;;4954465;28;20498;-87
2022/04/11 10:40:16;;;;;;;4.00;3.27;;;16.20;73.10;;;;;;4957519;28;21427;-87
2022/04/11 10:42:59;;;;;;;3.23;2.93;;;15.90;76.40;;;;;;4940947;28;20655;-86
2022/04/11 10:45:38;;;;;;;2.37;2.17;;;15.70;71.80;;;;;;4963845;28;20436;-86
2022/04/11 10:48:04;;;;;;;3.43;2.37;;;15.60;57.30;;;;;;4948187;28;20448;-87
2022/04/11 10:50:35;;;;;;;3.77;2.47;;;15.50;59.20;;;;;;4946565;28;20616;-86
2022/04/11 10:54:08;;;;;;;2.90;2.70;;;15.50;59.60;;;;;;4947239;28;20899;-95
2022/04/11 10:57:08;;;;;;;2.40;2.20;;;16.10;74.70;;;;;;4960344;28;20475;-94
2022/04/11 11:00:06;;;;;;;2.50;2.30;;;16.10;64.30;;;;;;4984234;28;20452;-94
2022/04/11 11:02:57;;;;;;;3.60;2.33;;;16.10;66.20;;;;;;4987729;28;20431;-94
2022/04/11 11:05:36;;;;;;;3.33;3.10;;;16.30;59.50;;;;;;4999090;28;20444;-93
2022/04/11 11:08:14;;;;;;;3.60;3.30;;;16.50;56.90;;;;;;4965123;28;20447;-95
2022/04/11 11:11:19;;;;;;;3.10;2.43;;;16.70;65.70;;;;;;4994723;28;20525;-95
2022/04/11 11:14:29;;;;;;;2.67;2.40;;;17.00;58.60;;;;;;4972038;28;20484;-86
2022/04/11 11:16:58;;;;;;;10.07;4.10;;;16.70;65.20;;;;;;4957096;28;20451;-84
2022/04/11 11:19:24;;;;;;;2.70;2.50;;;16.50;67.70;;;;;;4966392;28;21796;-83
2022/04/11 11:21:55;;;;;;;3.23;2.93;;;16.60;76.40;;;;;;4977067;28;20439;-84
2022/04/11 11:24:21;;;;;;;5.40;3.40;;;16.60;68.20;;;;;;4975848;28;20185;-85
2022/04/11 11:26:52;;;;;;;2.73;2.10;;;16.90;70.70;;;;;;4977530;28;20451;-85
2022/04/11 11:29:23;;;;;;;2.60;2.40;;;17.20;66.60;;;;;;4983026;28;20189;-85
2022/04/11 11:31:50;;;;;;;4.97;3.70;;;17.40;63.70;;;;;;4989139;28;20451;-84
2022/04/11 11:34:18;;;;;;;2.33;2.13;;;17.40;66.90;;;;;;4975696;28;20884;-86
2022/04/11 11:36:44;;;;;;;4.23;3.27;;;17.40;60.90;;;;;;4970286;28;20795;-87
2022/04/11 11:39:17;;;;;;;2.20;2.03;;;17.20;53.90;;;;;;4981300;28;21760;-87
2022/04/11 11:41:43;;;;;;;4.87;3.30;;;17.40;53.60;;;;;;4956461;28;20320;-84
2022/04/11 11:44:10;;;;;;;2.70;2.50;;;17.40;57.40;;;;;;4960942;28;22384;-84
2022/04/11 11:46:55;;;;;;;3.60;2.70;;;17.40;59.80;;;;;;4970202;28;20458;-83
2022/04/11 11:49:22;;;;;;;2.83;2.63;;;17.60;59.50;;;;;;4965222;28;20530;-85
2022/04/11 11:51:48;;;;;;;2.90;2.63;;;17.60;59.80;;;;;;4954767;28;20862;-85
2022/04/11 11:54:14;;;;;;;3.10;2.90;;;18.00;58.70;;;;;;4941788;28;20581;-84
2022/04/11 11:56:44;;;;;;;2.47;2.30;;;17.90;61.40;;;;;;4946671;28;20437;-85
2022/04/11 11:59:11;;;;;;;2.87;2.67;;;18.30;58.70;;;;;;4958705;28;20448;-84
2022/04/11 12:01:38;;;;;;;5.30;3.30;;;18.20;62.00;;;;;;4959940;28;20479;-84
2022/04/11 12:04:18;;;;;;;3.00;2.50;;;18.20;65.20;;;;;;4941645;28;20475;-84
2022/04/11 12:06:53;;;;;;;3.87;3.00;;;18.20;62.40;;;;;;4961760;28;20991;-84
2022/04/11 12:09:19;;;;;;;3.67;3.27;;;18.20;69.00;;;;;;4963703;28;20669;-84
2022/04/11 12:11:45;;;;;;;3.20;2.90;;;18.60;57.50;;;;;;4965946;28;20613;-84
2022/04/11 12:14:11;;;;;;;2.90;2.70;;;18.40;56.70;;;;;;4974274;28;20547;-84
2022/04/11 12:16:54;;;;;;;3.10;2.80;;;18.90;56.30;;;;;;4966450;28;20353;-84
2022/04/11 12:19:19;;;;;;;3.00;2.60;;;18.80;57.90;;;;;;4954093;28;20655;-84
2022/04/11 12:21:45;;;;;;;3.07;2.77;;;18.90;59.70;;;;;;4966682;28;20481;-84
2022/04/11 12:24:10;;;;;;;3.77;3.40;;;18.80;58.80;;;;;;4977200;28;20186;-84
2022/04/11 12:26:39;;;;;;;5.07;2.90;;;18.30;56.90;;;;;;4957994;28;20193;-84
2022/04/11 12:29:10;;;;;;;4.97;3.23;;;18.40;52.00;;;;;;4965863;28;20184;-84
2022/04/11 12:31:38;;;;;;;2.93;2.73;;;18.60;52.40;;;;;;4976258;28;20452;-85
2022/04/11 12:34:11;;;;;;;3.83;2.93;;;18.80;55.00;;;;;;4956964;28;20961;-84
2022/04/11 12:36:37;;;;;;;3.30;2.70;;;18.60;56.30;;;;;;4964617;28;20444;-84
2022/04/11 12:39:13;;;;;;;3.50;3.20;;;18.90;60.10;;;;;;4960161;28;20980;-84
2022/04/11 12:41:45;;;;;;;5.10;3.40;;;18.90;56.70;;;;;;4967492;28;20347;-84
2022/04/11 12:44:13;;;;;;;3.40;3.10;;;19.30;60.40;;;;;;4961180;28;21641;-84
2022/04/11 12:46:41;;;;;;;4.47;3.03;;;19.60;57.70;;;;;;4987182;28;20469;-84
2022/04/11 12:49:09;;;;;;;4.50;3.33;;;19.30;56.20;;;;;;4975200;28;20483;-89
2022/04/11 12:51:36;;;;;;;3.03;2.80;;;18.90;57.50;;;;;;4966129;28;20467;-87
2022/04/11 12:54:11;;;;;;;2.90;2.70;;;18.90;59.40;;;;;;4955217;28;20452;-87
2022/04/11 12:56:49;;;;;;;5.40;2.73;;;19.60;61.40;;;;;;4964486;28;20443;-88